Airfield :
LOGIN :

Register | Disclaimer

   EN    FR    IT 

 










Legend :    VFR   Marginal VFR   IFR   Intensive IFR   Very Intensive IFR
Visi :
Ceiling :
>= 8 km
>= 3000ft
5 to 8 km
1000 to 3000 ft
1500m to 5 km
500 to 1000 ft
800 to 1500m
200 to 500 ft
< 800m
< 200 ft
Symbols :   Thunderstorms  Fog  Heavy snow  Heavy precipitations  Wind > 20 kt
SIGMETs :     Misc.  Thunderstorms  Icing  Turbulence  Mountain Waves  Volcanic Ashes






- Airport Elevation : 17 ft
- IATA code : GRQ


EHGG - Groningen Eelde

CURRENT METAR :
  • 290325Z AUTO 01009KT 340V050 9999 NCD 05/M01 Q1027

EXPIRED METARs :
  • 290255Z AUTO 01011KT 330V040 9999 NCD 05/M01 Q1026
  • 290225Z AUTO 36008KT 310V040 9999 NCD 05/M02 Q1026
  • 290155Z AUTO 36009KT 320V040 9999 NCD 05/M01 Q1026
  • 290125Z AUTO 36010KT 320V040 9999 NCD 05/00 Q1026
  • 290055Z AUTO 35011KT 310V040 9999 NCD 05/00 Q1026

TAF TAF EHGG
Valid from the 29 at 00:00 until the 30 at 06:00 UTC


282319Z 2900/3006 35010KT 9999 SCT025
BECMG 2905/2907 02018KT
TEMPO 2908/2916 03022G35KT
PROB30
TEMPO 2908/2911 3000 -SHSNRAGS FEW020CB BKN025
BECMG 2917/2920 01008KT
PROB40
TEMPO 3004/3006 29018KT 1500 -SHSNRA SNRA SCT008 BKN012 SCT018CB



MET'MAP, your aeronautical weather chart ! - Copyright ORBIFLY December 2007 - Disclaimer

ORBIFLY MET'MAP TEAM :

Programming & Development : Alexandra Zaïnal
Concept & original design : Baudouin d'Aumeries
Assistance for programming : Marc-Olivier Méhu
Technical & hardware support : Manuel Goepfert

Contact : metmap@orbifly.com




SOURCES & CREDITS :

   NOAA